Time;durP1;ratioP1;P1;durP2;ratioP2;P2;SDS_P1;SDS_P2;PMS_P1;PMS_P2;Temp;Humidity;BMP_temperature;BMP_pressure;BME280_temperature;BME280_humidity;BME280_pressure;Samples;Min_cycle;Max_cycle;Signal;HPM_P1;HPM_P2
2022/10/03 00:01:00;;;;;;;9.87;6.57;;;11.90;99.90;;;;;;4967571;28;20447;-84
2022/10/03 00:03:36;;;;;;;0.20;0.10;;;12.00;99.90;;;;;;4968077;28;20498;-85
2022/10/03 00:06:10;;;;;;;0.20;0.10;;;11.90;99.90;;;;;;4970841;28;20462;-84
2022/10/03 00:09:00;;;;;;;0.20;0.10;;;11.80;99.90;;;;;;4961480;28;20840;-85
2022/10/03 00:11:37;;;;;;;0.20;0.10;;;11.70;99.90;;;;;;4965900;28;20454;-85
2022/10/03 00:14:14;;;;;;;0.20;0.20;;;11.60;99.90;;;;;;4963199;28;20462;-85
2022/10/03 00:16:51;;;;;;;0.20;0.20;;;11.50;99.90;;;;;;4977999;28;20442;-83
2022/10/03 00:19:27;;;;;;;0.20;0.10;;;11.40;99.90;;;;;;4960571;28;20459;-85
2022/10/03 00:22:07;;;;;;;0.20;0.20;;;11.30;99.90;;;;;;4973215;28;20500;-84
2022/10/03 00:24:45;;;;;;;0.20;0.10;;;11.20;99.90;;;;;;4987763;28;20435;-83
2022/10/03 00:27:18;;;;;;;0.20;0.20;;;11.20;99.90;;;;;;4966292;28;20484;-84
2022/10/03 00:30:16;;;;;;;0.20;0.20;;;11.20;99.90;;;;;;4964062;28;20553;-84
2022/10/03 00:33:11;;;;;;;0.20;0.10;;;11.10;99.90;;;;;;4963273;28;20873;-85
2022/10/03 00:36:03;;;;;;;0.20;0.10;;;11.00;99.90;;;;;;4983620;28;20445;-85
2022/10/03 00:39:18;;;;;;;0.20;0.20;;;10.90;99.90;;;;;;4963736;29;20478;-84
2022/10/03 00:42:15;;;;;;;0.20;0.20;;;10.90;99.90;;;;;;4923200;29;20527;-85
2022/10/03 00:45:02;;;;;;;0.20;0.10;;;10.90;99.90;;;;;;4967859;28;20495;-84
2022/10/03 00:48:00;;;;;;;0.20;0.17;;;10.80;99.90;;;;;;4964137;28;20475;-83
2022/10/03 00:51:04;;;;;;;1.53;1.53;;;10.80;99.90;;;;;;4956462;28;20820;-85
2022/10/03 00:53:43;;;;;;;0.20;0.20;;;10.90;99.90;;;;;;4973260;28;20450;-84
2022/10/03 00:56:31;;;;;;;0.30;0.30;;;11.00;99.90;;;;;;4968574;28;20453;-84
2022/10/03 00:59:15;;;;;;;0.20;0.10;;;11.00;99.90;;;;;;4972808;28;20467;-84
2022/10/03 01:01:45;;;;;;;0.20;0.20;;;11.00;99.90;;;;;;4974416;28;20448;-84
2022/10/03 01:04:41;;;;;;;0.20;0.10;;;11.10;99.90;;;;;;4979906;28;20469;-84
2022/10/03 01:07:26;;;;;;;0.20;0.10;;;11.10;99.90;;;;;;4969225;28;20550;-84
2022/10/03 01:10:08;;;;;;;0.20;0.20;;;11.00;99.90;;;;;;4973249;28;20448;-84
2022/10/03 01:12:57;;;;;;;0.20;0.10;;;11.10;99.90;;;;;;4974412;28;20482;-84
2022/10/03 01:15:36;;;;;;;0.20;0.20;;;11.10;99.90;;;;;;4967620;28;20449;-84
2022/10/03 01:18:18;;;;;;;0.20;0.10;;;11.10;99.90;;;;;;4971449;28;20474;-81
2022/10/03 01:20:52;;;;;;;0.30;0.20;;;11.10;99.90;;;;;;4975084;28;20434;-84
2022/10/03 01:30:23;;;;;;;0.20;0.10;;;11.30;99.90;;;;;;4972857;28;20850;-85
2022/10/03 01:32:57;;;;;;;0.20;0.10;;;11.30;99.90;;;;;;4995315;28;20943;-86
2022/10/03 01:35:43;;;;;;;0.20;0.10;;;11.30;99.90;;;;;;4995419;28;20461;-85
2022/10/03 01:38:19;;;;;;;1.50;1.50;;;11.40;99.90;;;;;;5005197;28;20446;-85
2022/10/03 01:40:53;;;;;;;0.20;0.10;;;11.60;99.90;;;;;;5014123;28;20892;-85
2022/10/03 01:43:24;;;;;;;1.23;1.13;;;11.60;99.90;;;;;;5015358;28;20496;-85
2022/10/03 01:46:08;;;;;;;0.20;0.10;;;11.60;99.90;;;;;;5017127;28;20444;-85
2022/10/03 01:48:43;;;;;;;0.20;0.10;;;11.50;99.90;;;;;;5014702;28;20455;-85
2022/10/03 01:51:15;;;;;;;0.20;0.20;;;11.50;99.90;;;;;;5014394;28;20511;-85
2022/10/03 01:53:57;;;;;;;0.20;0.10;;;11.40;99.90;;;;;;5014336;28;20476;-85
2022/10/03 01:56:30;;;;;;;0.20;0.20;;;11.50;99.90;;;;;;5014651;28;20450;-85
2022/10/03 01:59:03;;;;;;;0.20;0.20;;;11.40;99.90;;;;;;5014405;28;20925;-86
2022/10/03 02:01:46;;;;;;;0.20;0.20;;;11.30;99.90;;;;;;5014177;28;20906;-85
2022/10/03 02:04:28;;;;;;;0.20;0.17;;;11.30;99.90;;;;;;5014288;28;20508;-86
2022/10/03 02:07:05;;;;;;;0.20;0.20;;;11.20;99.90;;;;;;5014067;28;20457;-85
2022/10/03 02:09:39;;;;;;;0.20;0.20;;;11.10;99.90;;;;;;5014425;28;20445;-85
2022/10/03 02:12:13;;;;;;;0.63;0.63;;;11.10;99.90;;;;;;5014130;28;20446;-86
2022/10/03 02:14:57;;;;;;;0.20;0.20;;;11.10;99.90;;;;;;5013734;28;20474;-85
2022/10/03 02:17:44;;;;;;;0.20;0.20;;;11.10;99.90;;;;;;5014070;28;20513;-85
2022/10/03 02:20:22;;;;;;;0.20;0.20;;;11.10;99.90;;;;;;5014307;28;20449;-85
2022/10/03 02:22:52;;;;;;;0.20;0.10;;;11.10;99.90;;;;;;5013853;28;20512;-85
2022/10/03 02:25:25;;;;;;;0.20;0.10;;;11.10;99.90;;;;;;5014057;28;20452;-85
2022/10/03 02:28:13;;;;;;;0.20;0.20;;;11.20;99.90;;;;;;5013975;28;20449;-85
2022/10/03 02:31:06;;;;;;;0.20;0.10;;;11.20;99.90;;;;;;5013947;28;20453;-85
2022/10/03 02:34:17;;;;;;;0.20;0.10;;;11.20;99.90;;;;;;5013499;28;20563;-85
2022/10/03 02:37:21;;;;;;;0.20;0.20;;;11.30;99.90;;;;;;4952887;29;20462;-85
2022/10/03 02:40:22;;;;;;;0.20;0.13;;;11.30;99.90;;;;;;4949956;28;20465;-85
2022/10/03 02:43:31;;;;;;;0.20;0.20;;;11.30;99.90;;;;;;5013620;28;20481;-85
2022/10/03 02:46:28;;;;;;;0.20;0.20;;;11.20;99.90;;;;;;5013889;28;20445;-87
2022/10/03 02:49:18;;;;;;;0.20;0.20;;;11.30;99.90;;;;;;4968453;28;20486;-86
2022/10/03 02:52:17;;;;;;;0.20;0.20;;;11.30;99.90;;;;;;4993830;28;20445;-86
2022/10/03 02:55:15;;;;;;;0.20;0.20;;;11.40;99.90;;;;;;4970013;28;20859;-86
2022/10/03 02:58:25;;;;;;;0.20;0.10;;;11.50;99.90;;;;;;4972677;28;20461;-85
2022/10/03 03:01:18;;;;;;;0.57;0.50;;;11.60;99.90;;;;;;4958618;28;20457;-86
2022/10/03 03:04:19;;;;;;;0.20;0.20;;;11.60;99.90;;;;;;4993374;28;20508;-86
2022/10/03 03:07:02;;;;;;;0.20;0.20;;;11.60;99.90;;;;;;4993680;28;20814;-85
2022/10/03 03:09:57;;;;;;;0.20;0.10;;;11.60;99.90;;;;;;4993290;28;20816;-85
2022/10/03 03:12:52;;;;;;;0.20;0.10;;;11.60;99.90;;;;;;4993521;28;20439;-85
2022/10/03 03:16:10;;;;;;;0.20;0.10;;;11.50;99.90;;;;;;4993379;28;20465;-85
2022/10/03 03:18:42;;;;;;;0.20;0.20;;;11.50;99.90;;;;;;4978353;28;20458;-86
2022/10/03 03:21:19;;;;;;;0.20;0.20;;;11.50;99.90;;;;;;4993792;28;20441;-85
2022/10/03 03:24:14;;;;;;;0.20;0.20;;;11.40;99.90;;;;;;4992971;28;20504;-86
2022/10/03 03:27:03;;;;;;;0.20;0.20;;;11.30;99.90;;;;;;4993550;28;20446;-86
2022/10/03 03:29:42;;;;;;;0.20;0.10;;;11.30;99.90;;;;;;4993422;28;20453;-85
2022/10/03 03:32:19;;;;;;;0.20;0.10;;;11.20;99.90;;;;;;5001338;28;20456;-86
2022/10/03 03:34:56;;;;;;;0.20;0.20;;;11.20;99.90;;;;;;5013146;28;20570;-86
2022/10/03 03:37:33;;;;;;;0.20;0.10;;;11.10;99.90;;;;;;5012826;28;20443;-86
2022/10/03 03:40:12;;;;;;;0.20;0.20;;;11.10;99.90;;;;;;5012490;28;20201;-86
2022/10/03 03:43:05;;;;;;;0.20;0.20;;;11.00;99.90;;;;;;5012728;28;20485;-85
2022/10/03 03:45:47;;;;;;;0.20;0.10;;;11.00;99.90;;;;;;5012667;28;20447;-86
2022/10/03 03:48:39;;;;;;;0.20;0.20;;;10.90;99.90;;;;;;5012445;28;20803;-85
2022/10/03 03:51:21;;;;;;;0.20;0.20;;;10.90;99.90;;;;;;5012884;28;20468;-86
2022/10/03 03:54:15;;;;;;;0.20;0.10;;;10.80;99.90;;;;;;5012976;28;20468;-86
2022/10/03 03:57:06;;;;;;;0.20;0.20;;;10.80;99.90;;;;;;5006295;28;20685;-85
2022/10/03 03:59:43;;;;;;;0.20;0.10;;;10.80;99.90;;;;;;5012610;28;20446;-85
2022/10/03 04:02:37;;;;;;;0.20;0.10;;;10.80;99.90;;;;;;5013189;28;20599;-86
2022/10/03 04:05:17;;;;;;;0.20;0.20;;;10.90;99.90;;;;;;5016743;28;20514;-85
2022/10/03 04:07:54;;;;;;;0.20;0.20;;;11.00;99.90;;;;;;5016502;28;20862;-86
2022/10/03 04:10:31;;;;;;;0.20;0.10;;;11.00;99.90;;;;;;5016834;28;20456;-85
2022/10/03 04:13:31;;;;;;;0.20;0.20;;;11.10;99.90;;;;;;5016407;28;20491;-85
2022/10/03 04:18:56;;;;;;;0.20;0.20;;;10.90;99.90;;;;;;4992974;28;20445;-85
2022/10/03 04:19:18;;;;;;;0.20;0.20;;;10.90;99.90;;;;;;5015651;28;20449;-86
2022/10/03 04:22:14;;;;;;;2.07;1.63;;;10.90;99.90;;;;;;5016357;28;20488;-85
2022/10/03 04:25:04;;;;;;;0.20;0.20;;;10.90;99.90;;;;;;5016007;28;20504;-85
2022/10/03 04:27:51;;;;;;;0.20;0.10;;;10.90;99.90;;;;;;5016253;28;20448;-86
2022/10/03 04:30:23;;;;;;;0.20;0.10;;;11.00;99.90;;;;;;5016104;28;20464;-86
2022/10/03 04:33:09;;;;;;;0.20;0.20;;;10.90;99.90;;;;;;5015849;28;20439;-86
2022/10/03 04:36:09;;;;;;;0.20;0.20;;;10.90;99.90;;;;;;5016229;28;20464;-86
2022/10/03 04:38:48;;;;;;;2.20;2.10;;;10.80;99.90;;;;;;4993592;28;20453;-86
2022/10/03 04:41:27;;;;;;;0.20;0.20;;;10.80;99.90;;;;;;4996533;28;20432;-86
2022/10/03 04:44:03;;;;;;;0.20;0.10;;;10.70;99.90;;;;;;4996514;28;20500;-86
2022/10/03 04:46:35;;;;;;;0.20;0.20;;;10.70;99.90;;;;;;4997405;28;20480;-86
2022/10/03 04:49:12;;;;;;;0.20;0.20;;;10.70;99.90;;;;;;5018247;28;20449;-86
2022/10/03 04:51:52;;;;;;;0.20;0.10;;;10.70;99.90;;;;;;5035440;28;20435;-87
2022/10/03 04:54:29;;;;;;;0.20;0.13;;;10.70;99.90;;;;;;5018417;28;20479;-86
2022/10/03 04:57:03;;;;;;;0.20;0.20;;;10.70;99.90;;;;;;5017573;28;20477;-86
2022/10/03 04:59:42;;;;;;;0.20;0.20;;;10.70;99.90;;;;;;5024110;28;20447;-86
2022/10/03 05:02:21;;;;;;;0.20;0.20;;;10.50;99.90;;;;;;5024391;28;20462;-86
2022/10/03 05:05:05;;;;;;;0.20;0.20;;;10.50;99.90;;;;;;5023362;28;20947;-86
2022/10/03 05:07:41;;;;;;;0.20;0.20;;;10.50;99.90;;;;;;4997857;28;20206;-86
2022/10/03 05:10:28;;;;;;;0.20;0.10;;;10.50;99.90;;;;;;5013397;28;20514;-86
2022/10/03 05:13:02;;;;;;;0.20;0.10;;;10.50;99.90;;;;;;5015505;28;20206;-86
2022/10/03 05:15:32;;;;;;;0.20;0.20;;;10.50;99.90;;;;;;5016279;28;21044;-86
2022/10/03 05:18:06;;;;;;;0.20;0.10;;;10.40;99.90;;;;;;5015944;28;20198;-86
2022/10/03 05:20:47;;;;;;;0.20;0.10;;;10.50;99.90;;;;;;5015420;28;20226;-86
2022/10/03 05:23:33;;;;;;;0.20;0.10;;;10.60;99.90;;;;;;5015234;28;20496;-86
2022/10/03 05:26:09;;;;;;;0.20;0.10;;;10.60;99.90;;;;;;5001254;28;20440;-86
2022/10/03 05:28:41;;;;;;;0.20;0.10;;;10.70;99.90;;;;;;5015320;28;20447;-85
2022/10/03 05:31:26;;;;;;;0.20;0.20;;;10.70;99.90;;;;;;5015218;28;20192;-86
2022/10/03 05:34:02;;;;;;;0.20;0.20;;;10.80;99.90;;;;;;4995369;28;20560;-87
2022/10/03 05:36:35;;;;;;;0.20;0.20;;;10.90;99.90;;;;;;4995655;28;20488;-87
2022/10/03 05:39:41;;;;;;;0.20;0.20;;;11.00;99.90;;;;;;4994920;28;20505;-86
2022/10/03 05:42:26;;;;;;;0.20;0.17;;;11.10;99.90;;;;;;5014797;28;20458;-87
2022/10/03 05:45:02;;;;;;;0.30;0.30;;;11.10;99.90;;;;;;5014793;28;20500;-86
2022/10/03 05:47:45;;;;;;;0.20;0.20;;;11.20;99.90;;;;;;5014661;28;20533;-86
2022/10/03 05:50:35;;;;;;;0.20;0.20;;;11.20;99.90;;;;;;5014835;28;20476;-86
2022/10/03 05:53:14;;;;;;;0.20;0.20;;;11.20;99.90;;;;;;5014393;28;21089;-86
2022/10/03 05:55:53;;;;;;;0.20;0.20;;;11.30;99.90;;;;;;5014622;28;20902;-86
2022/10/03 05:58:57;;;;;;;0.20;0.20;;;11.40;99.90;;;;;;5014264;28;20425;-86
2022/10/03 06:01:55;;;;;;;0.20;0.20;;;11.40;99.90;;;;;;4999864;28;20521;-86
2022/10/03 06:04:49;;;;;;;0.20;0.13;;;11.40;99.90;;;;;;5014878;28;20580;-86
2022/10/03 06:07:23;;;;;;;0.20;0.20;;;11.30;99.90;;;;;;5014748;28;20429;-86
2022/10/03 06:10:33;;;;;;;1.33;1.33;;;11.20;99.90;;;;;;5014123;28;20440;-86
2022/10/03 06:13:12;;;;;;;0.20;0.20;;;11.20;99.90;;;;;;4995615;28;21002;-86
2022/10/03 06:15:53;;;;;;;0.63;0.63;;;11.20;99.90;;;;;;5014543;28;20448;-86
2022/10/03 06:19:13;;;;;;;0.20;0.20;;;11.20;99.90;;;;;;4994275;28;20446;-85
2022/10/03 06:22:20;;;;;;;0.20;0.10;;;11.00;99.90;;;;;;4901738;29;20469;-85
2022/10/03 06:25:21;;;;;;;0.20;0.20;;;10.90;99.90;;;;;;4993715;28;21010;-86
2022/10/03 06:28:26;;;;;;;0.20;0.10;;;11.00;99.90;;;;;;4994019;28;20541;-85
2022/10/03 06:31:29;;;;;;;0.20;0.20;;;11.20;99.90;;;;;;4994269;28;20509;-86
2022/10/03 06:34:33;;;;;;;0.20;0.20;;;11.30;99.90;;;;;;4984064;28;20486;-86
2022/10/03 06:37:26;;;;;;;0.20;0.10;;;11.40;99.90;;;;;;4994442;28;20476;-85
2022/10/03 06:40:26;;;;;;;0.20;0.20;;;11.20;99.90;;;;;;4988957;28;20887;-87
2022/10/03 06:43:17;;;;;;;1.17;1.17;;;11.40;99.90;;;;;;4994176;28;20946;-86
2022/10/03 06:46:08;;;;;;;0.20;0.20;;;11.40;99.90;;;;;;4991625;28;20848;-85
2022/10/03 06:49:12;;;;;;;0.20;0.10;;;11.50;99.90;;;;;;4993928;28;20472;-85
2022/10/03 06:52:09;;;;;;;0.20;0.20;;;11.60;99.90;;;;;;4994331;28;20486;-86
2022/10/03 06:55:12;;;;;;;0.20;0.10;;;11.70;99.90;;;;;;4984195;28;20485;-86
2022/10/03 06:58:11;;;;;;;0.20;0.20;;;11.80;99.90;;;;;;4993996;28;20520;-86
2022/10/03 07:00:52;;;;;;;1.33;1.23;;;11.70;99.90;;;;;;4993683;28;20830;-86
2022/10/03 07:04:00;;;;;;;1.60;1.60;;;11.70;99.90;;;;;;4994648;28;20568;-86
2022/10/03 07:06:59;;;;;;;0.20;0.20;;;11.70;99.90;;;;;;4994328;28;20490;-85
2022/10/03 07:09:59;;;;;;;0.20;0.20;;;11.60;99.90;;;;;;4993714;28;20503;-85
2022/10/03 07:13:15;;;;;;;0.20;0.10;;;11.40;99.90;;;;;;5009385;28;21039;-85
2022/10/03 07:16:10;;;;;;;0.20;0.20;;;11.30;99.90;;;;;;4978785;28;20449;-85
2022/10/03 07:19:18;;;;;;;0.20;0.20;;;11.30;99.90;;;;;;5012811;28;20445;-85
2022/10/03 07:22:21;;;;;;;1.53;1.53;;;11.10;99.90;;;;;;5013265;28;20491;-85
2022/10/03 07:25:40;;;;;;;0.20;0.20;;;11.10;99.90;;;;;;5026388;22;20500;-81
2022/10/03 07:28:35;;;;;;;0.20;0.20;;;11.10;99.90;;;;;;4979662;28;20478;-82
2022/10/03 07:31:13;;;;;;;0.20;0.20;;;11.20;99.90;;;;;;4997347;28;20457;-82
2022/10/03 07:34:10;;;;;;;0.97;0.97;;;11.40;99.90;;;;;;5005523;28;20473;-82
2022/10/03 07:40:26;;;;;;;0.20;0.20;;;11.60;99.90;;;;;;5018998;28;20448;-82
2022/10/03 07:43:31;;;;;;;0.20;0.20;;;11.70;99.90;;;;;;4998609;28;20454;-82
2022/10/03 07:46:49;;;;;;;0.77;0.77;;;11.70;99.90;;;;;;5002495;28;20453;-82
2022/10/03 07:49:35;;;;;;;0.20;0.20;;;11.80;99.90;;;;;;5015891;28;20205;-80
2022/10/03 07:52:38;;;;;;;0.20;0.20;;;11.70;99.90;;;;;;5017482;28;20461;-82
2022/10/03 07:55:29;;;;;;;0.20;0.20;;;11.70;99.90;;;;;;5017902;28;20688;-82
2022/10/03 07:58:25;;;;;;;0.30;0.30;;;11.70;99.90;;;;;;5007197;28;20962;-82
2022/10/03 08:01:16;;;;;;;0.20;0.10;;;11.80;99.90;;;;;;5018954;28;20456;-82
2022/10/03 08:04:10;;;;;;;0.20;0.10;;;11.90;99.90;;;;;;5018304;28;20477;-82
2022/10/03 08:06:42;;;;;;;0.30;0.30;;;11.90;99.90;;;;;;5016876;28;20453;-82
2022/10/03 08:09:46;;;;;;;0.20;0.20;;;11.90;99.90;;;;;;5017688;28;20465;-82
2022/10/03 08:12:49;;;;;;;0.30;0.30;;;12.10;99.90;;;;;;5018483;28;20457;-82
2022/10/03 08:15:26;;;;;;;0.20;0.20;;;12.20;99.90;;;;;;5017106;28;20536;-82
2022/10/03 08:18:40;;;;;;;0.57;0.57;;;12.20;99.90;;;;;;5011117;28;20465;-84
2022/10/03 08:21:11;;;;;;;0.20;0.10;;;12.30;99.90;;;;;;4988112;28;20547;-84
2022/10/03 08:24:16;;;;;;;0.20;0.10;;;12.20;99.90;;;;;;4999920;28;20484;-84
2022/10/03 08:27:06;;;;;;;0.20;0.20;;;12.20;99.90;;;;;;5014012;28;20476;-84
2022/10/03 08:30:02;;;;;;;0.57;0.20;;;12.30;99.90;;;;;;5019517;28;20429;-84
2022/10/03 08:32:58;;;;;;;0.20;0.10;;;12.50;99.90;;;;;;5019744;28;20450;-84
2022/10/03 08:35:44;;;;;;;0.60;0.60;;;12.60;99.90;;;;;;5010267;28;20820;-84
2022/10/03 08:38:47;;;;;;;1.60;1.50;;;12.90;99.90;;;;;;5018917;28;20446;-84
2022/10/03 08:41:51;;;;;;;0.40;0.40;;;13.10;99.90;;;;;;5019245;28;20468;-84
2022/10/03 08:44:49;;;;;;;0.50;0.50;;;13.20;99.90;;;;;;5029434;28;20539;-85
2022/10/03 08:47:46;;;;;;;1.30;1.23;;;13.30;99.90;;;;;;5016772;28;20845;-84
2022/10/03 08:50:46;;;;;;;0.20;0.10;;;13.50;99.90;;;;;;5019704;28;20461;-86
2022/10/03 08:53:48;;;;;;;1.40;1.40;;;13.40;99.90;;;;;;5000010;28;20502;-85
2022/10/03 08:56:21;;;;;;;0.20;0.10;;;13.50;99.90;;;;;;5005001;28;20487;-86
2022/10/03 08:59:22;;;;;;;0.20;0.20;;;13.40;99.90;;;;;;5019509;28;20438;-84
2022/10/03 09:02:27;;;;;;;0.20;0.10;;;13.40;99.90;;;;;;5019641;28;20456;-84
2022/10/03 09:05:31;;;;;;;0.20;0.10;;;13.50;99.90;;;;;;5020046;28;20990;-86
2022/10/03 09:08:31;;;;;;;0.20;0.10;;;13.90;99.90;;;;;;5016364;28;20520;-84
2022/10/03 09:11:55;;;;;;;0.20;0.10;;;14.20;99.90;;;;;;5006845;28;20465;-85
2022/10/03 09:14:53;;;;;;;1.07;1.07;;;14.40;99.90;;;;;;4986063;28;20477;-84
2022/10/03 09:17:58;;;;;;;2.83;1.60;;;14.60;99.90;;;;;;5014295;28;20541;-84
2022/10/03 09:21:05;;;;;;;0.20;0.13;;;14.80;99.90;;;;;;5020177;28;20454;-85
2022/10/03 09:24:08;;;;;;;0.20;0.10;;;14.80;99.90;;;;;;5019767;28;20488;-83
2022/10/03 09:27:23;;;;;;;0.20;0.10;;;15.00;99.90;;;;;;5019685;28;20446;-85
2022/10/03 09:30:24;;;;;;;0.20;0.10;;;14.80;99.90;;;;;;5005438;28;20886;-84
2022/10/03 09:33:22;;;;;;;0.77;0.77;;;14.60;99.90;;;;;;5028018;28;20452;-82
2022/10/03 09:36:03;;;;;;;0.20;0.10;;;14.80;99.90;;;;;;5034275;28;20478;-82
2022/10/03 09:38:51;;;;;;;0.20;0.20;;;15.00;99.90;;;;;;5036150;28;20436;-83
2022/10/03 09:41:44;;;;;;;0.20;0.10;;;15.10;99.90;;;;;;5031867;28;21204;-84
2022/10/03 09:44:35;;;;;;;0.20;0.10;;;14.70;99.90;;;;;;5019221;28;20831;-84
2022/10/03 09:47:49;;;;;;;0.20;0.20;;;14.00;99.90;;;;;;5008863;28;20484;-85
2022/10/03 09:51:00;;;;;;;0.20;0.10;;;13.90;99.90;;;;;;5019419;28;20450;-84
2022/10/03 09:54:09;;;;;;;0.20;0.10;;;13.40;99.90;;;;;;5019831;28;20470;-84
2022/10/03 09:56:57;;;;;;;0.20;0.10;;;13.30;99.90;;;;;;5018957;28;21017;-85
2022/10/03 09:59:38;;;;;;;0.20;0.10;;;13.20;99.90;;;;;;5017771;28;20458;-84
2022/10/03 10:02:26;;;;;;;2.23;2.20;;;13.30;99.90;;;;;;5007598;28;20450;-83
2022/10/03 10:05:18;;;;;;;0.20;0.20;;;13.30;99.90;;;;;;5007542;28;20496;-84
2022/10/03 10:08:09;;;;;;;1.73;1.13;;;13.30;99.90;;;;;;5002810;28;20577;-84
2022/10/03 10:11:02;;;;;;;17.40;11.87;;;13.50;99.90;;;;;;5011113;28;20446;-83
2022/10/03 10:14:04;;;;;;;14.00;11.87;;;13.40;99.90;;;;;;5011959;28;20580;-84
2022/10/03 10:17:18;;;;;;;12.40;10.00;;;13.50;99.90;;;;;;5010506;28;20458;-85
2022/10/03 10:19:55;;;;;;;13.23;10.90;;;14.00;99.90;;;;;;5012024;28;20446;-85
2022/10/03 10:23:06;;;;;;;13.30;10.77;;;14.10;99.90;;;;;;5012375;28;20827;-84
2022/10/03 10:25:55;;;;;;;11.00;9.90;;;14.50;99.90;;;;;;5012796;28;20488;-85
2022/10/03 10:28:43;;;;;;;12.40;9.30;;;14.70;99.90;;;;;;5009337;28;20442;-84
2022/10/03 10:31:51;;;;;;;12.17;10.77;;;14.50;99.90;;;;;;5013688;28;20454;-84
2022/10/03 10:34:51;;;;;;;9.97;9.07;;;14.70;99.90;;;;;;5025844;28;20525;-84
2022/10/03 10:38:04;;;;;;;9.53;7.60;;;15.00;99.90;;;;;;5012339;28;20450;-86
2022/10/03 10:41:03;;;;;;;9.60;7.93;;;15.20;99.90;;;;;;5019668;28;20944;-86
2022/10/03 10:44:26;;;;;;;8.87;6.73;;;15.20;99.90;;;;;;5019003;28;20471;-84
2022/10/03 10:47:27;;;;;;;13.30;8.47;;;15.40;99.90;;;;;;5019336;28;20818;-85
2022/10/03 10:50:35;;;;;;;10.23;7.70;;;15.70;99.90;;;;;;5010992;28;20519;-84
2022/10/03 10:53:38;;;;;;;8.97;7.33;;;15.50;99.90;;;;;;4996315;28;20832;-86
2022/10/03 10:56:49;;;;;;;9.40;7.97;;;15.80;99.90;;;;;;4959917;28;20441;-85
2022/10/03 10:59:53;;;;;;;8.43;7.37;;;16.00;99.90;;;;;;5006193;28;20450;-84
2022/10/03 11:03:05;;;;;;;9.00;7.40;;;15.70;99.90;;;;;;5019248;28;20931;-84
2022/10/03 11:06:21;;;;;;;10.37;8.50;;;15.80;99.90;;;;;;5015364;28;20475;-85
2022/10/03 11:09:31;;;;;;;7.20;6.47;;;15.70;99.90;;;;;;5012103;28;20448;-84
2022/10/03 11:12:39;;;;;;;10.57;8.50;;;15.70;99.90;;;;;;5007094;28;20450;-83
2022/10/03 11:15:51;;;;;;;7.83;7.03;;;15.50;99.90;;;;;;5019834;28;20465;-82
2022/10/03 11:18:55;;;;;;;9.67;8.70;;;15.00;99.90;;;;;;4964200;28;20455;-81
2022/10/03 11:22:04;;;;;;;9.57;7.93;;;14.80;99.90;;;;;;5013857;28;20450;-82
2022/10/03 11:25:11;;;;;;;8.30;7.50;;;14.40;99.90;;;;;;5020093;28;20513;-82
2022/10/03 11:32:07;;;;;;;7.47;6.77;;;14.20;99.90;;;;;;4942269;28;20473;-85
2022/10/03 11:35:06;;;;;;;16.30;8.07;;;14.10;99.90;;;;;;5000420;28;20545;-84
2022/10/03 11:37:59;;;;;;;8.40;7.60;;;14.20;99.90;;;;;;5018470;28;20450;-85
2022/10/03 11:40:35;;;;;;;6.50;5.90;;;14.50;99.90;;;;;;5029770;28;20439;-85
2022/10/03 11:43:59;;;;;;;6.90;6.20;;;15.40;99.90;;;;;;5030225;28;20540;-85
2022/10/03 11:46:47;;;;;;;5.63;5.20;;;16.80;99.90;;;;;;5029414;28;20495;-85
2022/10/03 11:49:36;;;;;;;6.83;6.20;;;18.20;99.90;;;;;;5027803;28;20459;-86
2022/10/03 11:52:23;;;;;;;5.90;5.40;;;19.20;99.90;;;;;;5026560;28;20480;-86
2022/10/03 11:55:09;;;;;;;6.80;5.17;;;19.30;99.90;;;;;;5024065;28;20546;-86
2022/10/03 11:57:38;;;;;;;10.00;6.70;;;19.10;99.90;;;;;;5023790;28;20477;-86
2022/10/03 12:00:12;;;;;;;6.57;5.93;;;19.50;99.90;;;;;;5022874;28;20830;-87
2022/10/03 12:03:17;;;;;;;6.60;5.77;;;20.20;99.90;;;;;;5019835;28;20438;-86
2022/10/03 12:08:53;;;;;;;5.67;5.17;;;20.50;99.90;;;;;;5019159;28;20462;-86
2022/10/03 12:08:55;;;;;;;4.83;4.17;;;21.50;99.90;;;;;;5015053;28;20952;-87
2022/10/03 12:11:27;;;;;;;4.87;4.37;;;22.00;99.90;;;;;;5012854;28;20430;-86
2022/10/03 12:14:20;;;;;;;5.97;3.77;;;21.70;98.60;;;;;;5013802;28;20486;-86
2022/10/03 12:17:01;;;;;;;3.90;3.50;;;21.20;95.50;;;;;;5012221;28;20533;-86
2022/10/03 12:19:34;;;;;;;4.00;3.53;;;20.20;95.00;;;;;;5012304;28;20438;-87
2022/10/03 12:22:10;;;;;;;4.70;4.30;;;19.90;95.60;;;;;;5012869;28;20535;-86
2022/10/03 12:24:41;;;;;;;5.97;5.03;;;19.80;97.30;;;;;;5019364;28;20990;-87
2022/10/03 12:27:19;;;;;;;4.47;4.07;;;19.80;99.90;;;;;;5029083;28;20536;-86
2022/10/03 12:29:57;;;;;;;4.37;3.60;;;19.60;98.90;;;;;;5016977;28;20441;-86
2022/10/03 12:32:38;;;;;;;4.57;3.60;;;19.60;99.90;;;;;;5020218;28;20445;-86
2022/10/03 12:35:24;;;;;;;4.97;4.47;;;20.20;99.90;;;;;;5021468;28;20825;-86
2022/10/03 12:38:03;;;;;;;4.67;3.47;;;20.50;97.40;;;;;;5022453;28;20434;-86
2022/10/03 12:40:35;;;;;;;3.80;3.50;;;20.70;96.10;;;;;;5023257;28;20436;-85
2022/10/03 12:43:18;;;;;;;3.83;3.53;;;21.60;99.90;;;;;;5023525;28;20486;-85
2022/10/03 12:45:50;;;;;;;3.67;3.30;;;22.80;99.90;;;;;;5023691;28;20839;-86
2022/10/03 12:48:38;;;;;;;4.00;3.10;;;23.70;99.20;;;;;;5036854;28;20505;-85
2022/10/03 12:51:20;;;;;;;3.10;2.83;;;24.90;99.90;;;;;;5039687;28;20525;-86
2022/10/03 12:54:02;;;;;;;3.30;3.03;;;26.20;97.40;;;;;;5030602;28;20471;-85
2022/10/03 12:56:41;;;;;;;3.30;3.00;;;26.60;93.80;;;;;;5026539;28;20456;-86
2022/10/03 12:59:19;;;;;;;3.20;3.00;;;27.40;90.90;;;;;;5026045;28;20866;-86
2022/10/03 13:02:16;;;;;;;4.07;3.70;;;28.30;83.80;;;;;;5027506;28;20454;-86
2022/10/03 13:04:53;;;;;;;5.03;4.13;;;28.00;68.20;;;;;;5027517;28;20474;-86
2022/10/03 13:07:28;;;;;;;4.30;3.10;;;26.70;65.10;;;;;;5027419;28;20446;-85
2022/10/03 13:10:11;;;;;;;8.50;4.23;;;25.70;67.60;;;;;;5028481;28;20850;-86
2022/10/03 13:12:45;;;;;;;5.37;4.63;;;23.90;71.50;;;;;;5027177;28;20539;-86
2022/10/03 13:16:01;;;;;;;5.37;3.70;;;22.80;74.20;;;;;;5027166;28;20497;-86
2022/10/03 13:18:53;;;;;;;3.90;3.60;;;22.10;73.80;;;;;;5027331;28;20442;-85
2022/10/03 13:21:26;;;;;;;9.30;4.13;;;21.90;80.40;;;;;;5028935;28;21076;-85
2022/10/03 13:23:58;;;;;;;6.60;4.00;;;22.50;82.90;;;;;;5036631;28;20512;-85
2022/10/03 13:26:37;;;;;;;3.50;3.10;;;23.20;77.50;;;;;;5026416;28;20488;-84
2022/10/03 13:29:24;;;;;;;3.57;2.87;;;23.90;79.90;;;;;;5026361;28;20441;-85
2022/10/03 13:32:06;;;;;;;4.20;3.80;;;24.20;77.00;;;;;;5027068;28;20955;-85
2022/10/03 13:34:46;;;;;;;5.97;4.07;;;24.30;75.20;;;;;;5026036;28;20479;-85
2022/10/03 13:37:22;;;;;;;3.80;3.10;;;23.60;70.30;;;;;;5026882;28;20827;-84
2022/10/03 13:39:53;;;;;;;3.60;2.93;;;23.60;72.30;;;;;;5026666;28;20449;-85
2022/10/03 13:42:30;;;;;;;4.43;3.37;;;23.90;80.10;;;;;;5025354;28;20450;-85
2022/10/03 13:45:02;;;;;;;4.40;4.10;;;24.60;76.30;;;;;;5026053;28;20462;-86
2022/10/03 13:47:43;;;;;;;4.70;3.23;;;24.50;69.10;;;;;;5023083;28;20494;-85
2022/10/03 13:50:17;;;;;;;3.33;3.03;;;23.70;68.50;;;;;;5023639;28;20453;-85
2022/10/03 13:52:48;;;;;;;5.23;3.70;;;22.90;72.20;;;;;;5025361;28;20483;-85
2022/10/03 13:55:26;;;;;;;6.33;3.63;;;21.70;73.20;;;;;;5026175;28;20482;-85
2022/10/03 13:58:17;;;;;;;4.43;3.23;;;21.60;76.70;;;;;;5026276;28;20440;-85
2022/10/03 14:00:56;;;;;;;4.40;4.10;;;20.60;76.70;;;;;;5026165;28;20454;-85
2022/10/03 14:03:31;;;;;;;5.80;4.30;;;20.30;80.20;;;;;;5026735;28;20473;-84
2022/10/03 14:06:19;;;;;;;4.13;3.70;;;19.70;83.20;;;;;;5026960;28;20496;-85
2022/10/03 14:09:28;;;;;;;4.63;4.23;;;19.20;82.60;;;;;;5027781;28;20460;-85
2022/10/03 14:12:06;;;;;;;7.13;4.00;;;18.50;85.40;;;;;;5014767;28;20877;-83
2022/10/03 14:14:52;;;;;;;5.77;5.20;;;18.60;88.40;;;;;;5025628;28;20450;-86
2022/10/03 14:17:28;;;;;;;4.50;4.10;;;18.60;88.50;;;;;;5024405;28;20454;-86
2022/10/03 14:20:19;;;;;;;3.90;3.33;;;18.40;87.30;;;;;;5031305;28;20463;-82
2022/10/03 14:23:06;;;;;;;3.70;3.40;;;18.20;88.10;;;;;;5020335;28;20939;-85
2022/10/03 14:25:39;;;;;;;4.00;3.17;;;18.10;87.40;;;;;;5021189;28;20447;-86
2022/10/03 14:28:16;;;;;;;6.83;4.53;;;18.30;90.70;;;;;;5009059;28;20957;-86
2022/10/03 14:30:56;;;;;;;4.33;3.60;;;18.10;87.60;;;;;;5016289;28;20946;-85
2022/10/03 14:33:31;;;;;;;4.30;3.80;;;18.20;89.60;;;;;;5014739;28;20853;-86
2022/10/03 14:36:11;;;;;;;3.93;3.63;;;18.10;88.00;;;;;;5016321;28;20448;-85
2022/10/03 14:39:01;;;;;;;6.63;3.67;;;18.20;89.20;;;;;;5018414;28;20456;-85
2022/10/03 14:41:43;;;;;;;3.80;3.30;;;18.10;89.60;;;;;;4999758;28;20458;-85
2022/10/03 14:44:16;;;;;;;6.90;4.90;;;18.20;87.50;;;;;;5002580;28;20484;-86
2022/10/03 14:46:54;;;;;;;4.93;4.30;;;18.00;87.10;;;;;;5020223;28;20499;-85
2022/10/03 14:49:30;;;;;;;5.80;3.53;;;17.80;87.10;;;;;;5021608;28;20472;-85
2022/10/03 14:52:02;;;;;;;3.83;3.47;;;17.90;89.50;;;;;;5012847;28;20446;-85